Time;durP1;ratioP1;P1;durP2;ratioP2;P2;SDS_P1;SDS_P2;PMS_P1;PMS_P2;Temp;Humidity;BMP_temperature;BMP_pressure;BME280_temperature;BME280_humidity;BME280_pressure;Samples;Min_cycle;Max_cycle;Signal;HPM_P1;HPM_P2
2022/10/08 00:01:28;;;;;;;9.13;3.50;;;14.70;67.90;;;17.15;52.06;101374.03;5096324;28;20525;-58
2022/10/08 00:03:56;;;;;;;7.43;3.07;;;14.70;67.90;;;17.14;51.81;101385.69;5095654;28;20299;-58
2022/10/08 00:06:28;;;;;;;10.10;3.93;;;14.70;67.70;;;17.13;51.89;101384.06;5094301;28;20241;-57
2022/10/08 00:08:59;;;;;;;10.30;3.80;;;14.70;67.90;;;17.09;52.12;101382.78;5093032;28;20231;-58
2022/10/08 00:11:29;;;;;;;8.63;3.60;;;14.60;67.80;;;17.09;51.79;101382.78;5093072;28;20277;-58
2022/10/08 00:13:57;;;;;;;10.47;3.70;;;14.60;67.90;;;17.08;52.05;101381.19;5093175;28;20215;-58
2022/10/08 00:16:28;;;;;;;7.73;3.53;;;14.60;68.00;;;17.06;52.13;101380.56;5093759;28;20738;-58
2022/10/08 00:19:01;;;;;;;11.37;3.50;;;14.60;68.00;;;17.04;52.27;101371.97;5093264;28;20185;-55
2022/10/08 00:21:32;;;;;;;5.80;3.20;;;14.60;68.10;;;17.05;51.86;101372.75;5107592;28;20208;-55
2022/10/08 00:24:00;;;;;;;9.17;3.67;;;14.60;68.20;;;17.05;51.88;101370.94;5133918;27;20210;-56
2022/10/08 00:26:30;;;;;;;8.93;3.57;;;14.50;68.20;;;17.01;52.10;101374.19;5135766;27;20187;-58
2022/10/08 00:29:03;;;;;;;10.77;3.80;;;14.50;68.40;;;16.97;52.39;101379.13;5134919;27;20191;-57
2022/10/08 00:31:34;;;;;;;9.73;3.57;;;14.50;68.40;;;16.89;52.38;101371.31;5134326;27;20628;-58
2022/10/08 00:34:04;;;;;;;10.23;3.57;;;14.40;68.60;;;16.88;52.51;101365.16;5113096;28;20212;-58
2022/10/08 00:36:36;;;;;;;8.87;3.30;;;14.40;68.70;;;16.86;52.73;101363.72;5114046;28;20611;-57
2022/10/08 00:39:06;;;;;;;8.93;3.67;;;14.40;68.70;;;16.84;52.61;101357.78;5118046;27;20215;-57
2022/10/08 00:41:37;;;;;;;6.20;3.03;;;14.30;68.70;;;16.75;52.97;101353.66;5118627;28;20244;-57
2022/10/08 00:44:45;;;;;;;11.77;3.57;;;14.30;69.10;;;16.62;53.01;101349.13;5118223;28;20687;-57
2022/10/08 00:47:18;;;;;;;7.77;3.63;;;14.30;69.30;;;16.65;53.17;101347.91;5118182;28;20233;-58
2022/10/08 00:49:48;;;;;;;8.87;3.00;;;14.30;69.40;;;16.64;53.20;101335.66;5117592;28;20269;-57
2022/10/08 00:52:18;;;;;;;7.53;3.47;;;14.20;69.50;;;16.67;53.05;101337.88;5117251;28;20274;-58
2022/10/08 00:54:49;;;;;;;8.60;3.30;;;14.20;69.50;;;16.65;53.54;101331.94;5118005;28;20184;-57
2022/10/08 00:57:17;;;;;;;8.53;3.47;;;14.10;69.60;;;16.62;53.37;101324.38;5117135;28;20199;-59
2022/10/08 00:59:44;;;;;;;11.50;3.43;;;14.20;69.80;;;16.58;53.76;101331.94;5116802;28;20188;-57
2022/10/08 01:02:12;;;;;;;11.47;3.37;;;14.10;69.90;;;16.53;53.84;101318.41;5116987;28;20223;-57
2022/10/08 01:04:43;;;;;;;9.17;3.73;;;14.10;70.00;;;16.53;53.71;101317.59;5117003;28;20210;-58
2022/10/08 01:07:21;;;;;;;11.67;3.80;;;14.10;70.00;;;16.51;53.51;101309.84;5117036;28;20660;-57
2022/10/08 01:10:00;;;;;;;9.00;3.93;;;14.10;70.10;;;16.45;53.76;101321.22;5117166;28;20168;-58
2022/10/08 01:12:44;;;;;;;8.23;3.50;;;14.00;70.20;;;16.47;53.86;101324.50;5116422;28;20207;-57
2022/10/08 01:15:23;;;;;;;13.73;3.87;;;14.10;70.30;;;16.47;53.78;101313.06;5117032;28;20589;-57
2022/10/08 01:18:03;;;;;;;10.57;4.07;;;14.00;70.20;;;16.46;53.70;101317.53;5116870;28;20222;-57
2022/10/08 01:20:45;;;;;;;8.67;3.50;;;14.00;70.40;;;16.46;54.17;101311.41;5115520;28;20214;-59
2022/10/08 01:24:06;;;;;;;11.53;3.47;;;14.00;70.50;;;16.43;54.09;101307.31;5115334;28;20215;-59
2022/10/08 01:26:56;;;;;;;11.73;3.00;;;14.00;70.60;;;16.52;53.68;101310.66;5113386;27;20603;-58
2022/10/08 01:29:31;;;;;;;11.40;3.50;;;14.10;70.40;;;16.54;53.81;101314.75;5116361;28;20203;-59
2022/10/08 01:32:06;;;;;;;8.60;3.50;;;14.00;70.60;;;16.62;53.72;101317.22;5115550;28;20179;-57
2022/10/08 01:34:41;;;;;;;7.33;3.60;;;14.10;70.60;;;16.66;53.57;101317.66;5116274;28;20188;-60
2022/10/08 01:37:15;;;;;;;7.83;3.13;;;14.10;70.70;;;16.75;53.19;101316.44;5116656;28;20667;-59
2022/10/08 01:39:46;;;;;;;7.90;3.30;;;14.10;70.50;;;16.79;53.16;101305.22;5116394;28;20222;-57
2022/10/08 01:42:16;;;;;;;8.87;2.80;;;14.20;70.70;;;16.86;53.34;101295.41;5109194;28;20259;-59
2022/10/08 01:44:51;;;;;;;11.17;3.80;;;14.20;70.60;;;16.86;53.30;101302.56;5101614;28;20236;-58
2022/10/08 01:47:22;;;;;;;7.63;3.13;;;14.20;70.30;;;16.94;52.89;101299.72;5116385;28;20184;-59
2022/10/08 01:49:57;;;;;;;10.10;3.53;;;14.30;70.30;;;17.00;53.11;101308.75;5114980;27;20187;-59
2022/10/08 01:52:32;;;;;;;10.77;3.67;;;14.30;71.10;;;17.06;52.87;101297.28;5115912;28;20211;-59
2022/10/08 01:55:03;;;;;;;8.53;3.07;;;14.30;70.10;;;17.05;52.74;101311.59;5116221;28;20180;-59
2022/10/08 01:57:33;;;;;;;8.47;3.53;;;14.40;70.10;;;17.04;53.03;101304.66;5116069;28;20196;-59
2022/10/08 02:00:07;;;;;;;6.50;3.23;;;14.40;70.00;;;17.02;52.77;101298.72;5114825;28;20195;-57
2022/10/08 02:02:34;;;;;;;9.40;3.60;;;14.40;70.00;;;17.05;52.77;101299.13;5116101;28;20207;-57
2022/10/08 02:05:04;;;;;;;10.13;3.93;;;14.50;70.00;;;17.07;52.89;101305.03;5115776;28;20226;-58
2022/10/08 02:07:35;;;;;;;11.90;3.60;;;14.50;70.00;;;17.07;52.71;101299.72;5115995;28;20192;-58
2022/10/08 02:10:07;;;;;;;8.83;3.57;;;14.50;70.10;;;17.07;53.15;101294.41;5115685;28;20184;-58
2022/10/08 02:12:38;;;;;;;7.90;2.73;;;14.50;70.20;;;17.11;53.08;101300.97;5115648;28;20216;-58
2022/10/08 02:15:13;;;;;;;5.60;2.80;;;14.50;70.10;;;17.17;52.93;101305.47;5116352;28;20237;-58
2022/10/08 02:17:56;;;;;;;5.47;3.67;;;14.50;70.00;;;17.20;52.71;101306.91;5115877;28;20264;-58
2022/10/08 02:20:32;;;;;;;7.80;2.80;;;14.60;70.20;;;17.21;52.69;101312.00;5114142;28;20188;-60
2022/10/08 02:23:09;;;;;;;8.00;3.57;;;14.60;70.00;;;17.26;52.54;101314.88;5135746;27;20223;-58
2022/10/08 02:25:47;;;;;;;9.20;3.27;;;14.60;70.00;;;17.27;52.83;101310.38;5122259;27;20519;-57
2022/10/08 02:28:27;;;;;;;8.00;3.40;;;14.60;70.20;;;17.30;52.46;101308.16;5116170;28;20180;-56
2022/10/08 02:31:04;;;;;;;8.13;3.67;;;14.60;70.80;;;17.23;52.97;101310.00;5114780;28;20187;-58
2022/10/08 02:33:39;;;;;;;7.67;3.13;;;14.70;70.30;;;17.24;52.80;101311.63;5115673;28;20264;-55
2022/10/08 02:36:10;;;;;;;10.20;3.27;;;14.60;70.10;;;17.22;52.89;101308.34;5116319;28;20176;-57
2022/10/08 02:38:46;;;;;;;12.73;3.50;;;14.70;71.20;;;17.18;53.09;101312.44;5116044;28;20249;-58
2022/10/08 02:41:15;;;;;;;6.53;3.07;;;14.60;70.40;;;17.19;53.26;101302.59;5095253;28;20249;-58
2022/10/08 02:43:48;;;;;;;9.47;3.17;;;14.60;70.50;;;17.20;53.39;101304.25;5114078;28;20224;-58
2022/10/08 02:46:21;;;;;;;7.50;3.10;;;14.60;70.60;;;17.21;53.20;101306.69;5116402;28;20188;-57
2022/10/08 02:48:56;;;;;;;8.33;3.07;;;14.60;70.60;;;17.26;53.31;101304.25;5115620;28;20184;-59
2022/10/08 02:51:26;;;;;;;7.40;2.87;;;14.60;70.70;;;17.25;53.41;101313.25;5115873;28;20221;-59
2022/10/08 02:53:57;;;;;;;9.87;3.30;;;14.60;70.90;;;17.26;53.30;101311.41;5116195;28;20207;-59
2022/10/08 02:56:35;;;;;;;13.20;3.50;;;14.60;70.90;;;17.28;53.42;101310.19;5115352;28;20229;-58
2022/10/08 02:59:03;;;;;;;10.87;3.30;;;14.70;71.00;;;17.31;53.38;101307.13;5116520;27;20264;-59
2022/10/08 03:01:43;;;;;;;8.87;3.63;;;14.70;70.90;;;17.36;53.29;101299.34;5116864;27;20194;-56
2022/10/08 03:04:18;;;;;;;10.33;3.30;;;14.70;71.00;;;17.37;53.10;101301.00;5116547;28;20199;-59
2022/10/08 03:06:47;;;;;;;6.57;2.90;;;14.70;71.00;;;17.48;53.10;101303.03;5115771;28;20198;-58
2022/10/08 03:09:18;;;;;;;9.70;3.10;;;14.70;70.80;;;17.57;52.90;101307.13;5117769;28;20237;-59
2022/10/08 03:11:47;;;;;;;8.97;2.90;;;14.80;71.00;;;17.62;52.71;101313.69;5114118;28;20189;-60
2022/10/08 03:14:19;;;;;;;8.97;2.77;;;14.80;70.90;;;17.67;52.44;101308.56;5114697;28;20199;-57
2022/10/08 03:16:48;;;;;;;11.93;4.47;;;14.80;71.60;;;17.68;52.51;101312.88;5114607;28;20192;-58
2022/10/08 03:19:17;;;;;;;8.70;3.37;;;14.90;71.00;;;17.70;52.52;101308.16;5114964;28;20215;-56
2022/10/08 03:21:49;;;;;;;5.43;2.73;;;14.90;70.90;;;17.74;52.83;101307.53;5123981;27;20193;-59
2022/10/08 03:24:16;;;;;;;10.43;3.77;;;14.90;70.70;;;17.82;52.30;101317.16;5135332;27;20194;-57
2022/10/08 03:26:43;;;;;;;10.43;3.20;;;15.00;70.70;;;17.85;52.33;101314.09;5134907;27;20188;-57
2022/10/08 03:29:10;;;;;;;6.57;3.10;;;15.00;70.60;;;17.81;52.64;101307.50;5135010;27;20667;-58
2022/10/08 03:31:38;;;;;;;7.40;2.33;;;15.10;70.70;;;17.85;52.51;101303.44;5134485;27;20240;-58
2022/10/08 03:34:07;;;;;;;5.23;2.67;;;15.10;70.60;;;17.79;52.47;101299.75;5124979;27;20208;-57
2022/10/08 03:36:35;;;;;;;6.97;3.00;;;15.10;70.50;;;17.84;52.53;101301.78;5114348;28;20260;-58
2022/10/08 03:39:02;;;;;;;8.20;2.87;;;15.10;70.40;;;17.89;52.24;101304.63;5114162;28;20260;-58
2022/10/08 03:41:30;;;;;;;9.87;3.43;;;15.10;70.60;;;17.87;52.32;101309.34;5112612;28;20200;-58
2022/10/08 03:43:59;;;;;;;10.23;3.10;;;15.10;70.40;;;17.91;52.49;101314.06;5114348;28;20631;-59
2022/10/08 03:46:26;;;;;;;6.20;3.20;;;15.10;70.40;;;17.93;52.22;101313.84;5113973;28;20196;-57
2022/10/08 03:48:54;;;;;;;10.17;3.00;;;15.20;70.60;;;17.98;52.26;101320.19;5113793;28;20184;-58
2022/10/08 03:51:23;;;;;;;9.17;2.90;;;15.10;70.50;;;18.05;52.17;101317.50;5113257;28;20605;-58
2022/10/08 03:53:50;;;;;;;7.07;2.97;;;15.10;70.50;;;18.06;52.15;101327.16;5113904;28;20204;-58
2022/10/08 03:56:23;;;;;;;5.67;2.33;;;15.20;70.60;;;18.06;52.07;101316.50;5114090;28;20184;-59
2022/10/08 03:58:53;;;;;;;5.00;2.80;;;15.20;70.60;;;18.09;52.13;101329.41;5113824;28;20212;-59
2022/10/08 04:01:21;;;;;;;10.03;3.30;;;15.20;70.70;;;18.10;52.19;101323.03;5113669;28;20180;-58
2022/10/08 04:03:49;;;;;;;4.77;2.80;;;15.20;71.40;;;18.11;51.96;101335.34;5114078;28;20234;-58
2022/10/08 04:06:17;;;;;;;7.53;2.57;;;15.20;70.70;;;18.11;52.19;101317.47;5109904;28;20599;-59
2022/10/08 04:08:46;;;;;;;8.93;2.93;;;15.20;70.90;;;18.05;52.71;101304.19;5092452;28;20193;-58
2022/10/08 04:11:16;;;;;;;8.50;2.83;;;15.20;71.20;;;17.93;53.19;101300.53;5092589;28;20602;-59
2022/10/08 04:13:44;;;;;;;6.70;2.77;;;15.20;71.30;;;17.93;53.20;101317.34;5092959;28;20215;-58
2022/10/08 04:16:15;;;;;;;6.20;2.40;;;15.30;71.30;;;17.97;53.07;101326.53;5093234;28;20192;-57
2022/10/08 04:18:44;;;;;;;7.90;2.60;;;15.20;71.40;;;17.99;53.03;101326.34;5110617;28;20239;-58
2022/10/08 04:21:14;;;;;;;7.27;2.80;;;15.20;71.50;;;18.02;52.99;101320.56;5118399;28;20195;-58
2022/10/08 04:23:43;;;;;;;9.13;3.20;;;15.20;71.50;;;18.04;53.00;101314.00;5134231;27;20207;-58
2022/10/08 04:26:13;;;;;;;9.97;2.97;;;15.30;71.60;;;18.07;52.92;101318.94;5134356;27;20565;-58
2022/10/08 04:28:43;;;;;;;6.03;2.27;;;15.20;71.70;;;18.10;52.97;101317.69;5134393;27;20187;-58
2022/10/08 04:31:15;;;;;;;7.57;2.60;;;15.30;71.90;;;18.13;52.72;101314.63;5133690;27;20543;-58
2022/10/08 04:33:44;;;;;;;9.93;3.23;;;15.30;71.90;;;18.12;52.91;101331.63;5127339;27;20242;-58
2022/10/08 04:36:14;;;;;;;7.27;2.90;;;15.30;72.10;;;18.10;53.04;101339.00;5113490;28;20199;-58
2022/10/08 04:38:43;;;;;;;8.23;3.03;;;15.30;72.20;;;18.09;53.02;101342.72;5113498;28;20634;-58
2022/10/08 04:41:14;;;;;;;5.17;2.57;;;15.20;72.20;;;18.09;53.42;101332.06;5113064;28;20234;-58
2022/10/08 04:43:43;;;;;;;7.93;2.50;;;15.20;72.40;;;18.09;53.47;101337.41;5113158;28;20407;-57
2022/10/08 04:46:15;;;;;;;7.87;3.23;;;15.20;72.60;;;18.07;53.30;101344.75;5113179;28;20233;-59
2022/10/08 04:48:47;;;;;;;8.20;2.60;;;15.20;72.90;;;18.07;53.58;101350.09;5113245;28;20200;-59
2022/10/08 04:51:18;;;;;;;6.43;2.37;;;15.20;73.00;;;18.08;53.58;101354.41;5113124;28;20176;-58
2022/10/08 04:53:45;;;;;;;8.43;3.20;;;15.20;73.30;;;18.07;53.84;101350.91;5113362;28;20215;-58
2022/10/08 04:56:18;;;;;;;7.87;3.10;;;15.20;73.60;;;18.04;53.88;101361.19;5113885;28;20195;-58
2022/10/08 04:58:46;;;;;;;5.53;2.30;;;15.20;73.80;;;18.02;54.10;101363.22;5113467;28;20261;-57
2022/10/08 05:01:17;;;;;;;7.00;2.63;;;15.20;73.70;;;18.02;54.38;101360.53;5112910;28;20722;-56
2022/10/08 05:03:47;;;;;;;7.57;3.00;;;15.20;74.00;;;18.01;54.32;101351.75;5113276;28;20227;-59
2022/10/08 05:06:16;;;;;;;7.33;2.97;;;15.20;74.20;;;18.06;54.28;101351.13;5113622;28;20188;-58
2022/10/08 05:08:45;;;;;;;7.23;2.70;;;15.10;74.30;;;18.06;54.37;101346.63;5113178;28;20645;-58
2022/10/08 05:11:15;;;;;;;5.50;2.73;;;15.20;74.30;;;18.07;54.50;101358.91;5113382;28;20249;-58
2022/10/08 05:13:47;;;;;;;4.97;2.93;;;15.20;74.30;;;18.09;54.37;101353.38;5113333;28;20273;-58
2022/10/08 05:16:16;;;;;;;5.27;3.00;;;15.20;74.30;;;18.07;54.31;101361.56;5114358;28;20214;-58
2022/10/08 05:18:44;;;;;;;6.90;3.20;;;15.20;74.30;;;18.05;54.69;101358.28;5114225;28;20220;-58
2022/10/08 05:21:15;;;;;;;7.63;2.93;;;15.20;74.40;;;18.03;54.52;101365.69;5117878;28;20704;-59
2022/10/08 05:23:43;;;;;;;9.23;3.23;;;15.20;74.40;;;18.03;54.61;101367.53;5134579;27;20261;-58
2022/10/08 05:26:14;;;;;;;5.63;2.93;;;15.20;74.40;;;18.01;54.49;101374.91;5137404;27;20191;-58
2022/10/08 05:28:43;;;;;;;5.60;2.70;;;15.20;74.60;;;18.02;54.48;101374.69;5139882;27;20225;-58
2022/10/08 05:31:10;;;;;;;5.37;3.40;;;15.10;74.50;;;18.03;54.65;101380.84;5140150;27;20664;-58
2022/10/08 05:33:38;;;;;;;5.33;2.90;;;15.20;74.80;;;18.03;54.64;101378.19;5134613;27;20207;-59
2022/10/08 05:36:13;;;;;;;4.83;2.40;;;15.20;74.80;;;18.05;54.61;101384.94;5118139;28;20207;-59
2022/10/08 05:38:42;;;;;;;6.40;3.30;;;15.20;74.80;;;18.04;54.81;101377.16;5115995;28;20256;-60
2022/10/08 05:41:12;;;;;;;5.67;2.87;;;15.20;74.90;;;18.04;54.71;101372.63;5116201;28;20195;-58
2022/10/08 05:43:41;;;;;;;5.73;2.83;;;15.20;74.80;;;18.05;54.69;101368.94;5116371;28;20208;-59
2022/10/08 05:46:10;;;;;;;3.73;2.50;;;15.20;74.90;;;18.07;54.66;101376.72;5116883;27;20192;-58
2022/10/08 05:48:38;;;;;;;11.10;3.00;;;15.20;74.90;;;18.04;54.71;101383.28;5116450;28;20184;-57
2022/10/08 05:51:08;;;;;;;7.37;3.03;;;15.20;74.80;;;18.02;54.84;101381.84;5115065;28;20214;-56
2022/10/08 05:53:36;;;;;;;7.13;2.93;;;15.20;74.90;;;17.97;54.76;101382.47;5116112;28;20718;-58
2022/10/08 05:56:07;;;;;;;6.27;2.70;;;15.20;75.10;;;17.93;54.89;101385.75;5115985;28;20188;-59
2022/10/08 05:58:39;;;;;;;5.23;2.93;;;15.20;74.90;;;17.91;55.17;101387.81;5116322;28;20215;-57
2022/10/08 06:01:12;;;;;;;3.90;2.70;;;15.10;74.90;;;17.88;55.00;101390.88;5115718;28;20199;-58
2022/10/08 06:03:40;;;;;;;6.60;2.70;;;15.10;75.00;;;17.88;55.02;101393.56;5115833;28;20277;-57
2022/10/08 06:06:10;;;;;;;5.60;2.80;;;15.10;75.20;;;17.87;55.07;101394.59;5116406;28;20512;-58
2022/10/08 06:08:37;;;;;;;10.37;2.93;;;15.10;75.50;;;17.83;55.08;101401.38;5115842;28;20253;-58
2022/10/08 06:11:05;;;;;;;5.53;2.50;;;15.10;75.30;;;17.80;55.37;101401.75;5098228;28;20238;-57
2022/10/08 06:13:33;;;;;;;4.00;2.37;;;15.00;75.30;;;17.78;55.41;101409.16;5095068;28;20286;-56
2022/10/08 06:16:03;;;;;;;9.23;3.13;;;15.00;75.50;;;17.75;55.54;101415.69;5095552;28;20242;-57
2022/10/08 06:18:34;;;;;;;7.63;2.63;;;14.90;75.50;;;17.74;55.55;101418.56;5095221;28;20220;-56
2022/10/08 06:21:04;;;;;;;4.83;2.70;;;14.90;75.70;;;17.73;55.45;101422.25;5095010;28;20180;-58
2022/10/08 06:23:32;;;;;;;4.83;2.83;;;14.90;75.60;;;17.72;55.47;101420.59;5095160;28;20212;-55
2022/10/08 06:26:01;;;;;;;4.93;2.90;;;14.90;75.80;;;17.68;55.90;101420.22;5095197;28;20188;-57
2022/10/08 06:28:29;;;;;;;4.93;2.90;;;14.90;75.90;;;17.68;55.92;101430.84;5095150;28;20226;-58
2022/10/08 06:30:58;;;;;;;3.87;2.70;;;14.90;76.10;;;17.67;55.96;101434.53;5094549;28;20198;-55
2022/10/08 06:33:26;;;;;;;6.43;3.33;;;14.90;76.40;;;17.71;56.39;101440.28;5099325;28;20215;-57
2022/10/08 06:35:55;;;;;;;9.03;2.80;;;14.90;76.50;;;17.69;56.15;101450.28;5115287;28;20253;-56
2022/10/08 06:38:22;;;;;;;7.77;3.50;;;14.90;76.60;;;17.71;56.34;101448.28;5115310;28;20208;-56
2022/10/08 06:40:50;;;;;;;7.40;3.20;;;14.90;76.60;;;17.74;56.17;101450.50;5115253;27;20214;-56
2022/10/08 06:43:18;;;;;;;6.23;2.97;;;14.90;76.70;;;17.79;55.96;101458.72;5115661;28;20212;-57
2022/10/08 06:45:46;;;;;;;4.40;3.00;;;14.90;76.80;;;17.80;56.32;101460.34;5115299;28;20196;-57
2022/10/08 06:48:14;;;;;;;8.73;3.07;;;14.90;76.70;;;17.79;56.38;101469.34;5114477;28;20249;-57
2022/10/08 06:50:41;;;;;;;7.73;2.80;;;14.90;76.70;;;17.83;56.23;101467.94;5112654;27;20266;-58
2022/10/08 06:53:10;;;;;;;7.23;2.90;;;15.00;76.90;;;17.87;56.32;101469.16;5113461;28;20265;-58
2022/10/08 06:55:38;;;;;;;4.93;2.80;;;15.00;77.00;;;17.94;56.20;101476.16;5114454;28;20203;-58
2022/10/08 06:58:05;;;;;;;11.30;3.90;;;15.00;77.00;;;18.00;55.95;101480.66;5115045;28;20645;-58
2022/10/08 07:00:33;;;;;;;7.07;3.43;;;15.10;77.20;;;18.04;55.96;101484.53;5114247;28;20188;-58
2022/10/08 07:03:00;;;;;;;4.77;3.37;;;15.10;77.20;;;18.08;56.01;101479.63;5114545;28;20220;-59
2022/10/08 07:05:27;;;;;;;6.03;3.93;;;15.20;77.10;;;18.11;56.04;101481.88;5116139;27;20219;-58
2022/10/08 07:07:55;;;;;;;6.23;3.40;;;15.20;77.20;;;18.11;55.95;101484.56;5135402;27;20191;-59
2022/10/08 07:10:23;;;;;;;9.43;4.07;;;15.20;77.10;;;18.11;56.11;101490.69;5134822;27;20228;-58
2022/10/08 07:12:56;;;;;;;7.17;3.33;;;15.20;77.30;;;18.12;56.21;101499.50;5135034;27;20288;-58
2022/10/08 07:15:24;;;;;;;6.43;3.57;;;15.20;77.10;;;18.17;56.06;101497.03;5117116;27;20203;-57
2022/10/08 07:17:51;;;;;;;8.67;4.47;;;15.30;77.40;;;18.21;56.14;101496.41;5114133;28;20664;-59
2022/10/08 07:20:19;;;;;;;6.80;3.70;;;15.30;77.40;;;18.27;55.94;101508.94;5114030;28;20341;-58
2022/10/08 07:22:46;;;;;;;6.90;4.17;;;15.40;77.60;;;18.32;56.07;101513.66;5114062;27;20321;-59
2022/10/08 07:25:14;;;;;;;10.10;4.97;;;15.40;77.50;;;18.36;55.93;101520.19;5114356;28;20223;-59
2022/10/08 07:27:43;;;;;;;7.67;4.23;;;15.40;77.40;;;18.43;56.02;101515.69;5113076;28;20253;-59
2022/10/08 07:30:11;;;;;;;7.23;4.53;;;15.50;77.30;;;18.49;55.78;101527.41;5129800;27;20191;-59
2022/10/08 07:32:38;;;;;;;8.20;4.63;;;15.50;77.10;;;18.51;55.87;101528.84;5113225;28;20204;-58
2022/10/08 07:35:08;;;;;;;8.13;4.43;;;15.60;77.00;;;18.55;55.68;101530.06;5113614;28;20192;-58
2022/10/08 07:37:35;;;;;;;9.97;4.20;;;15.70;76.90;;;18.72;55.71;101533.94;5114290;28;20336;-59
2022/10/08 07:40:04;;;;;;;5.30;3.73;;;15.70;77.00;;;18.91;55.35;101535.75;5113739;28;20215;-59
2022/10/08 07:42:31;;;;;;;7.10;3.53;;;15.80;76.80;;;19.03;54.75;101538.59;5103602;28;20221;-58
2022/10/08 07:45:00;;;;;;;11.17;3.50;;;15.90;76.50;;;19.11;54.82;101545.53;5101557;28;20224;-59
2022/10/08 07:47:27;;;;;;;9.97;3.70;;;16.00;76.00;;;19.15;54.53;101547.56;5113650;28;20253;-59
2022/10/08 07:49:54;;;;;;;9.07;3.30;;;16.10;75.70;;;19.18;54.24;101547.16;5113488;28;20184;-58
2022/10/08 07:52:22;;;;;;;5.83;3.60;;;16.20;75.30;;;19.19;54.10;101548.78;5112451;28;20658;-61
2022/10/08 07:54:49;;;;;;;9.80;4.30;;;16.20;74.90;;;19.23;54.06;101559.88;5113199;27;20543;-58
2022/10/08 07:57:16;;;;;;;8.27;3.93;;;16.30;74.90;;;19.27;53.86;101559.25;5113493;28;20196;-55
2022/10/08 07:59:43;;;;;;;9.10;3.57;;;16.30;74.80;;;19.38;54.02;101563.13;5113544;28;20210;-58
2022/10/08 08:02:12;;;;;;;5.13;3.13;;;16.40;74.80;;;19.45;53.87;101574.59;5113193;28;20276;-56
2022/10/08 08:04:39;;;;;;;7.43;3.30;;;16.40;74.50;;;19.55;53.68;101569.63;5113428;28;20195;-59
2022/10/08 08:07:08;;;;;;;9.23;3.63;;;16.50;74.50;;;19.64;53.47;101578.19;5113682;28;20204;-57
2022/10/08 08:09:36;;;;;;;6.67;3.00;;;16.60;74.10;;;19.70;53.36;101572.00;5113648;28;20245;-59
2022/10/08 08:12:03;;;;;;;6.40;3.60;;;16.70;73.90;;;19.75;53.20;101581.03;5113266;28;20241;-59
2022/10/08 08:14:32;;;;;;;8.90;3.73;;;16.80;73.30;;;19.78;52.55;101590.47;5113544;28;20191;-58
2022/10/08 08:16:59;;;;;;;8.53;3.60;;;16.80;73.10;;;19.82;52.34;101591.69;5113600;28;20195;-59
2022/10/08 08:19:28;;;;;;;8.17;4.00;;;16.80;72.70;;;19.82;51.97;101587.16;5113791;28;20518;-58
2022/10/08 08:21:56;;;;;;;8.93;2.67;;;16.90;73.10;;;19.84;52.43;101603.78;5124779;28;20573;-59
2022/10/08 08:24:23;;;;;;;7.97;3.40;;;16.90;72.10;;;19.99;51.74;101598.16;5134654;27;20236;-58
2022/10/08 08:26:53;;;;;;;8.10;3.60;;;17.00;72.00;;;20.17;51.80;101596.41;5133325;27;20187;-58
2022/10/08 08:29:24;;;;;;;8.00;3.37;;;17.10;72.00;;;20.40;51.06;101595.00;5133789;27;20205;-55
2022/10/08 08:31:51;;;;;;;7.20;2.63;;;17.20;71.90;;;20.60;51.16;101598.34;5132516;27;20611;-58
2022/10/08 08:34:21;;;;;;;7.27;3.07;;;17.40;71.90;;;20.79;50.10;101618.75;5121988;27;20286;-57
2022/10/08 08:36:55;;;;;;;6.97;3.30;;;17.50;71.20;;;20.86;50.19;101615.00;5112992;28;20619;-58
2022/10/08 08:39:25;;;;;;;7.90;3.20;;;17.60;70.50;;;20.96;49.84;101619.84;5113383;28;20299;-58
2022/10/08 08:42:19;;;;;;;6.47;2.80;;;17.70;70.00;;;21.07;49.23;101619.13;5112858;28;20207;-57
2022/10/08 08:44:53;;;;;;;5.57;2.77;;;17.80;69.80;;;21.19;48.68;101633.44;5113248;28;20705;-58
2022/10/08 08:47:28;;;;;;;9.60;2.53;;;17.90;69.00;;;21.23;48.64;101629.25;5112098;28;20213;-57
2022/10/08 08:49:59;;;;;;;6.13;2.47;;;18.10;68.70;;;21.32;48.71;101635.16;5113684;28;20175;-59
2022/10/08 08:52:33;;;;;;;9.10;2.73;;;18.10;68.30;;;21.53;48.31;101632.84;5112747;28;20216;-59
2022/10/08 08:55:00;;;;;;;5.33;2.00;;;18.20;67.80;;;21.99;47.64;101628.75;5109526;28;20192;-58
2022/10/08 08:57:36;;;;;;;7.90;2.60;;;18.40;67.80;;;22.39;46.65;101619.09;5092495;28;20189;-59
2022/10/08 09:00:12;;;;;;;9.13;3.07;;;18.60;67.20;;;22.72;45.41;101632.81;5133546;27;20498;-58
2022/10/08 09:02:54;;;;;;;6.03;2.40;;;18.90;65.40;;;23.26;43.98;101630.81;5136929;27;20207;-59
2022/10/08 09:05:25;;;;;;;6.43;2.63;;;19.30;64.30;;;24.02;43.03;101628.63;5137594;27;20247;-57
2022/10/08 09:08:00;;;;;;;6.00;2.40;;;19.60;63.00;;;24.84;41.32;101628.97;5137328;27;20224;-58
2022/10/08 09:10:41;;;;;;;5.80;2.40;;;20.10;62.20;;;25.54;38.59;101629.13;5137229;27;20330;-59
2022/10/08 09:13:17;;;;;;;4.17;2.47;;;20.60;59.90;;;26.01;38.25;101621.28;5112869;27;20223;-59
2022/10/08 09:15:45;;;;;;;5.87;2.53;;;21.10;57.90;;;26.16;37.29;101629.56;5114338;28;20187;-59
2022/10/08 09:18:15;;;;;;;6.93;2.47;;;21.40;56.90;;;26.12;36.99;101623.06;5111791;28;20564;-59
2022/10/08 09:20:43;;;;;;;6.43;1.90;;;21.60;55.80;;;25.99;37.07;101634.22;5098489;27;20262;-58
2022/10/08 09:23:16;;;;;;;7.97;2.30;;;21.70;55.90;;;26.38;37.17;101624.91;5121266;27;20230;-58
2022/10/08 09:25:55;;;;;;;4.77;2.53;;;21.90;55.30;;;26.47;36.15;101620.66;5117088;28;20292;-59
2022/10/08 09:28:45;;;;;;;6.57;2.43;;;22.10;54.80;;;26.32;35.88;101617.00;5116489;27;20210;-59
2022/10/08 09:31:25;;;;;;;5.60;2.70;;;22.30;53.40;;;25.94;35.67;101629.56;5116466;28;20237;-58
2022/10/08 09:34:17;;;;;;;7.20;2.17;;;22.20;51.90;;;25.35;36.39;101636.69;5115940;28;20215;-58
2022/10/08 09:36:49;;;;;;;5.23;1.93;;;22.10;51.90;;;24.76;37.08;101645.50;5116293;28;20637;-58
2022/10/08 09:39:21;;;;;;;5.40;2.07;;;21.70;52.10;;;24.14;37.82;101656.31;5107377;27;20211;-58
2022/10/08 09:42:16;;;;;;;5.80;1.90;;;21.30;52.20;;;23.47;38.71;101643.66;5112486;28;20185;-59
2022/10/08 09:44:46;;;;;;;5.13;2.40;;;20.90;52.80;;;23.14;39.48;101659.56;5116181;28;20530;-58
2022/10/08 09:47:16;;;;;;;4.67;2.17;;;20.50;53.60;;;22.82;40.16;101651.84;5116193;28;20200;-59
2022/10/08 09:49:50;;;;;;;7.87;3.27;;;20.20;54.30;;;22.92;40.61;101655.84;5115663;28;20184;-58
2022/10/08 09:52:22;;;;;;;6.37;2.33;;;20.00;55.60;;;23.67;39.59;101643.25;5114061;27;20212;-56
2022/10/08 09:54:57;;;;;;;4.70;1.80;;;19.90;55.50;;;24.57;37.91;101654.91;5124076;27;20211;-59
2022/10/08 09:57:26;;;;;;;7.93;2.10;;;20.00;55.40;;;24.95;36.19;101657.69;5105641;28;20192;-59
2022/10/08 09:59:58;;;;;;;4.07;1.87;;;20.30;54.20;;;24.67;36.23;101665.84;5099192;28;20538;-60
2022/10/08 10:02:32;;;;;;;6.27;2.10;;;20.40;53.60;;;24.21;36.64;101667.75;5094502;27;20224;-57
2022/10/08 10:05:04;;;;;;;6.53;2.20;;;20.40;53.20;;;23.75;37.72;101675.16;5095004;28;20219;-56
2022/10/08 10:07:41;;;;;;;5.67;1.70;;;20.30;53.10;;;23.33;38.35;101677.19;5095173;28;20184;-59
2022/10/08 10:10:20;;;;;;;4.43;1.80;;;20.20;53.30;;;23.03;38.58;101680.00;5099856;28;20195;-58
2022/10/08 10:12:54;;;;;;;2.97;1.70;;;20.00;53.10;;;23.24;38.39;101681.28;5113882;27;20223;-59
2022/10/08 10:15:30;;;;;;;2.83;1.30;;;19.90;53.90;;;23.25;38.34;101677.56;5099931;28;20193;-59
2022/10/08 10:18:03;;;;;;;5.67;2.00;;;19.80;53.50;;;23.13;38.21;101684.81;5110700;28;20207;-59
2022/10/08 10:20:39;;;;;;;3.27;1.60;;;19.70;53.70;;;23.49;38.45;101676.47;5113160;28;20702;-59
2022/10/08 10:23:14;;;;;;;5.83;1.67;;;19.70;54.30;;;23.89;38.05;101688.06;5100383;28;20224;-59
2022/10/08 10:25:49;;;;;;;6.50;1.77;;;19.90;54.40;;;23.94;37.16;101681.97;5101687;28;20216;-59
2022/10/08 10:28:30;;;;;;;3.33;1.57;;;20.00;53.90;;;23.93;37.04;101678.47;5096270;28;20590;-59
2022/10/08 10:31:04;;;;;;;4.63;1.60;;;20.10;53.60;;;23.83;37.67;101680.13;5101930;28;20199;-59